Time;durP1;ratioP1;P1;durP2;ratioP2;P2;SDS_P1;SDS_P2;PMS_P1;PMS_P2;Temp;Humidity;BMP_temperature;BMP_pressure;BME280_temperature;BME280_humidity;BME280_pressure;Samples;Min_cycle;Max_cycle;Signal;HPM_P1;HPM_P2
2023/06/09 00:01:47;;;;;;;9.38;4.00;;;23.30;82.50;;;;;;4992304;28;20027;-67
2023/06/09 00:04:13;;;;;;;10.85;4.30;;;23.30;82.60;;;;;;4992442;28;20026;-67
2023/06/09 00:06:39;;;;;;;10.18;4.28;;;23.20;82.50;;;;;;4992310;28;20027;-67
2023/06/09 00:09:06;;;;;;;11.02;4.90;;;23.20;82.50;;;;;;4992208;28;20030;-66
2023/06/09 00:11:32;;;;;;;9.18;4.65;;;23.20;82.40;;;;;;4992433;28;20041;-66
2023/06/09 00:13:58;;;;;;;8.32;4.35;;;23.20;82.40;;;;;;4992390;28;20023;-67
2023/06/09 00:16:24;;;;;;;11.07;4.78;;;23.10;82.30;;;;;;4991746;28;20528;-67
2023/06/09 00:18:50;;;;;;;6.55;4.20;;;23.10;82.40;;;;;;4992378;28;20037;-67
2023/06/09 00:21:17;;;;;;;9.18;4.78;;;23.10;82.30;;;;;;4990843;28;20039;-67
2023/06/09 00:23:44;;;;;;;11.40;4.70;;;23.10;82.30;;;;;;4992164;28;20035;-68
2023/06/09 00:26:11;;;;;;;8.70;4.57;;;23.10;82.20;;;;;;4992170;28;20057;-68
2023/06/09 00:28:36;;;;;;;6.45;4.15;;;23.00;82.30;;;;;;4992168;28;20054;-67
2023/06/09 00:31:02;;;;;;;8.18;4.40;;;23.00;82.20;;;;;;4991732;28;20431;-67
2023/06/09 00:33:28;;;;;;;10.50;4.13;;;23.00;82.20;;;;;;4991919;28;20074;-67
2023/06/09 00:35:53;;;;;;;8.55;4.63;;;23.00;82.30;;;;;;4991964;28;20475;-67
2023/06/09 00:38:19;;;;;;;8.88;3.90;;;23.00;82.20;;;;;;4991886;28;20050;-67
2023/06/09 00:40:45;;;;;;;10.07;4.65;;;23.00;82.20;;;;;;4991962;28;20038;-67
2023/06/09 00:43:10;;;;;;;6.82;4.30;;;22.90;82.30;;;;;;4991713;28;20022;-67
2023/06/09 00:45:36;;;;;;;9.32;4.50;;;22.90;82.30;;;;;;4991575;28;20030;-67
2023/06/09 00:48:02;;;;;;;8.13;4.13;;;22.90;82.20;;;;;;4991677;28;20019;-67
2023/06/09 00:50:27;;;;;;;10.90;4.35;;;22.90;82.20;;;;;;4991570;28;20091;-67
2023/06/09 00:52:56;;;;;;;8.57;4.68;;;22.90;82.20;;;;;;4991819;28;20018;-67
2023/06/09 00:55:23;;;;;;;11.52;4.57;;;22.90;82.20;;;;;;4991679;28;20050;-67
2023/06/09 00:57:55;;;;;;;8.73;4.60;;;22.80;82.20;;;;;;4991649;28;20034;-67
2023/06/09 01:00:24;;;;;;;8.80;4.60;;;22.80;82.20;;;;;;4991419;28;20042;-68
2023/06/09 01:02:50;;;;;;;6.50;3.92;;;22.80;82.10;;;;;;4991475;28;20029;-66
2023/06/09 01:05:16;;;;;;;11.93;4.47;;;22.80;82.30;;;;;;4991509;28;20062;-66
2023/06/09 01:07:42;;;;;;;10.20;4.10;;;22.80;82.00;;;;;;4991557;28;20041;-67
2023/06/09 01:10:22;;;;;;;9.18;4.50;;;22.80;81.90;;;;;;4991011;28;20109;-68
2023/06/09 01:13:09;;;;;;;7.43;3.90;;;22.80;81.90;;;;;;4989968;28;20383;-68
2023/06/09 01:15:43;;;;;;;7.13;4.00;;;22.70;81.80;;;;;;4990036;28;20082;-68
2023/06/09 01:18:12;;;;;;;8.05;4.10;;;22.70;81.90;;;;;;4991266;28;20038;-68
2023/06/09 01:20:45;;;;;;;8.40;4.57;;;22.60;81.90;;;;;;4991349;28;20045;-68
2023/06/09 01:23:41;;;;;;;11.32;4.60;;;22.60;81.90;;;;;;4991348;28;20101;-68
2023/06/09 01:26:08;;;;;;;11.90;4.60;;;22.60;81.80;;;;;;4991145;28;20378;-68
2023/06/09 01:28:38;;;;;;;6.55;4.18;;;22.60;81.80;;;;;;4991045;28;20417;-68
2023/06/09 01:31:04;;;;;;;7.95;4.20;;;22.50;81.80;;;;;;4991242;28;20375;-68
2023/06/09 01:33:31;;;;;;;10.82;4.43;;;22.60;81.90;;;;;;4991150;28;20361;-68
2023/06/09 01:35:57;;;;;;;12.10;4.65;;;22.50;81.80;;;;;;4991094;28;20532;-68
2023/06/09 01:38:24;;;;;;;7.40;4.13;;;22.50;81.80;;;;;;4990964;28;20026;-68
2023/06/09 01:40:50;;;;;;;8.98;4.28;;;22.50;81.80;;;;;;4990867;28;20088;-68
2023/06/09 01:43:17;;;;;;;6.90;4.15;;;22.50;81.70;;;;;;4990754;28;20094;-68
2023/06/09 01:45:43;;;;;;;8.07;4.10;;;22.50;81.80;;;;;;4990942;28;20532;-68
2023/06/09 01:48:17;;;;;;;9.48;4.03;;;22.50;81.80;;;;;;4989542;28;20026;-68
2023/06/09 01:51:13;;;;;;;10.00;4.10;;;22.40;81.60;;;;;;4990852;28;20042;-68
2023/06/09 01:53:43;;;;;;;8.85;4.00;;;22.40;81.70;;;;;;4990942;28;20534;-67
2023/06/09 01:56:16;;;;;;;9.05;4.45;;;22.40;81.80;;;;;;4991502;28;20033;-68
2023/06/09 01:58:44;;;;;;;8.07;4.32;;;22.30;81.80;;;;;;4990704;28;20034;-67
2023/06/09 02:01:15;;;;;;;6.88;4.07;;;22.40;81.80;;;;;;4990843;28;20064;-67
2023/06/09 02:03:42;;;;;;;6.45;3.70;;;22.40;81.90;;;;;;4989400;28;20470;-67
2023/06/09 02:06:10;;;;;;;8.07;3.90;;;22.40;81.80;;;;;;4990887;28;20030;-66
2023/06/09 02:08:37;;;;;;;10.48;4.57;;;22.30;81.80;;;;;;4990669;28;20107;-67
2023/06/09 02:11:03;;;;;;;7.80;4.72;;;22.30;81.80;;;;;;4990635;28;20440;-67
2023/06/09 02:13:28;;;;;;;9.75;4.20;;;22.30;81.80;;;;;;4990471;28;20023;-67
2023/06/09 02:15:55;;;;;;;8.10;4.03;;;22.30;81.80;;;;;;4989249;28;20033;-67
2023/06/09 02:18:24;;;;;;;11.73;4.65;;;22.30;81.80;;;;;;4990401;28;20058;-67
2023/06/09 02:20:50;;;;;;;9.40;4.38;;;22.20;81.90;;;;;;4990308;28;20039;-67
2023/06/09 02:23:18;;;;;;;13.00;4.38;;;22.20;81.90;;;;;;4994041;28;20094;-67
2023/06/09 02:25:43;;;;;;;5.82;4.53;;;22.20;82.00;;;;;;4993713;28;20062;-66
2023/06/09 02:28:11;;;;;;;10.68;4.40;;;22.20;82.10;;;;;;4993882;28;20053;-67
2023/06/09 02:30:36;;;;;;;11.02;4.63;;;22.20;82.20;;;;;;4993758;28;20019;-67
2023/06/09 02:33:02;;;;;;;7.70;4.20;;;22.10;82.30;;;;;;4993806;28;20054;-68
2023/06/09 02:35:29;;;;;;;8.10;4.57;;;22.10;82.20;;;;;;4993757;28;20105;-68
2023/06/09 02:37:55;;;;;;;10.45;4.55;;;22.10;82.10;;;;;;4993764;28;20032;-68
2023/06/09 02:40:21;;;;;;;8.10;4.47;;;22.10;82.20;;;;;;4993534;28;20487;-69
2023/06/09 02:42:47;;;;;;;9.00;4.50;;;22.00;82.80;;;;;;4993801;28;20029;-69
2023/06/09 02:45:13;;;;;;;9.48;4.72;;;22.00;82.30;;;;;;4993531;28;20498;-69
2023/06/09 02:47:39;;;;;;;8.93;4.50;;;22.00;82.40;;;;;;4993703;28;20019;-68
2023/06/09 02:50:05;;;;;;;7.40;4.00;;;22.00;82.30;;;;;;4993375;28;20482;-68
2023/06/09 02:52:32;;;;;;;10.32;4.57;;;22.00;82.40;;;;;;4993582;28;20030;-68
2023/06/09 02:54:58;;;;;;;8.10;4.35;;;22.00;82.30;;;;;;4993094;28;20383;-68
2023/06/09 02:57:27;;;;;;;8.32;4.47;;;22.00;82.30;;;;;;4993582;28;20023;-68
2023/06/09 02:59:53;;;;;;;13.15;4.45;;;21.90;82.30;;;;;;4993260;28;20088;-68
2023/06/09 03:02:19;;;;;;;6.50;4.38;;;21.90;82.30;;;;;;4993458;28;20027;-68
2023/06/09 03:04:45;;;;;;;8.00;4.35;;;21.90;82.20;;;;;;4993121;28;20038;-68
2023/06/09 03:07:13;;;;;;;8.20;4.28;;;21.90;82.40;;;;;;4993505;28;20026;-68
2023/06/09 03:09:39;;;;;;;5.88;4.10;;;21.90;82.50;;;;;;4992900;28;20460;-69
2023/06/09 03:12:06;;;;;;;8.57;4.13;;;21.90;82.30;;;;;;4993315;28;20057;-68
2023/06/09 03:14:32;;;;;;;8.13;4.43;;;21.90;82.30;;;;;;4993324;28;20033;-68
2023/06/09 03:16:58;;;;;;;10.27;5.00;;;21.80;82.30;;;;;;4993056;28;20110;-68
2023/06/09 03:19:24;;;;;;;9.52;4.57;;;21.80;82.40;;;;;;4991765;28;20125;-68
2023/06/09 03:21:52;;;;;;;8.63;5.00;;;21.80;82.30;;;;;;4993144;28;20018;-67
2023/06/09 03:24:19;;;;;;;7.50;4.57;;;21.80;82.30;;;;;;4992846;28;20022;-68
2023/06/09 03:26:45;;;;;;;7.68;4.97;;;21.70;82.50;;;;;;4992920;28;20019;-68
2023/06/09 03:29:11;;;;;;;7.07;4.45;;;21.70;82.50;;;;;;4991948;28;20151;-68
2023/06/09 03:31:37;;;;;;;7.57;4.68;;;21.70;82.60;;;;;;4992973;28;20109;-68
2023/06/09 03:34:02;;;;;;;8.38;4.40;;;21.70;82.50;;;;;;4992581;28;20019;-68
2023/06/09 03:36:28;;;;;;;9.90;5.05;;;21.60;82.50;;;;;;4992890;28;20030;-68
2023/06/09 03:38:54;;;;;;;8.80;4.53;;;21.70;82.50;;;;;;4992595;28;20046;-68
2023/06/09 03:41:21;;;;;;;8.23;4.88;;;21.60;82.30;;;;;;4992672;28;20361;-68
2023/06/09 03:43:47;;;;;;;10.43;4.50;;;21.60;82.40;;;;;;4991541;28;20023;-68
2023/06/09 03:46:12;;;;;;;13.18;5.03;;;21.60;82.40;;;;;;4992682;28;20049;-68
2023/06/09 03:48:39;;;;;;;11.65;5.50;;;21.60;82.50;;;;;;4992614;28;20448;-67
2023/06/09 03:51:05;;;;;;;11.10;5.03;;;21.50;82.50;;;;;;4992583;28;20026;-68
2023/06/09 03:53:30;;;;;;;9.20;4.88;;;21.50;82.70;;;;;;4992457;28;20053;-68
2023/06/09 03:55:56;;;;;;;10.48;4.72;;;21.50;82.50;;;;;;4992386;28;20105;-68
2023/06/09 03:58:22;;;;;;;7.50;4.57;;;21.50;82.50;;;;;;4992737;28;20472;-68
2023/06/09 04:00:48;;;;;;;10.77;4.65;;;21.50;82.40;;;;;;4992301;28;20044;-67
2023/06/09 04:03:13;;;;;;;7.72;4.85;;;21.40;82.30;;;;;;4992555;28;20098;-68
2023/06/09 04:05:39;;;;;;;10.85;4.85;;;21.50;82.50;;;;;;4992296;28;20470;-67
2023/06/09 04:08:04;;;;;;;7.95;4.90;;;21.40;82.40;;;;;;4992194;28;20353;-69
2023/06/09 04:10:30;;;;;;;9.10;4.70;;;21.40;82.40;;;;;;4992429;28;20041;-68
2023/06/09 04:12:56;;;;;;;8.43;5.20;;;21.40;82.30;;;;;;4993064;28;20482;-66
2023/06/09 04:15:21;;;;;;;11.90;5.38;;;20.90;83.10;;;;;;4992968;28;20023;-65
2023/06/09 04:17:47;;;;;;;14.48;5.32;;;19.90;86.50;;;;;;4992306;28;20540;-66
2023/06/09 04:20:12;;;;;;;11.18;5.18;;;19.40;88.20;;;;;;4992242;28;20506;-66
2023/06/09 04:22:47;;;;;;;12.70;5.53;;;19.00;89.60;;;;;;4991940;28;20479;-66
2023/06/09 04:25:13;;;;;;;9.98;5.22;;;18.80;90.20;;;;;;4992098;28;20045;-66
2023/06/09 04:27:39;;;;;;;10.60;5.60;;;18.80;90.30;;;;;;4992287;28;20021;-66
2023/06/09 04:30:05;;;;;;;11.93;5.38;;;18.70;90.50;;;;;;4992009;28;20030;-66
2023/06/09 04:32:33;;;;;;;12.80;6.18;;;18.70;90.60;;;;;;4992048;28;20018;-66
2023/06/09 04:34:59;;;;;;;12.20;5.30;;;18.60;90.70;;;;;;4990744;28;20032;-66
2023/06/09 04:37:25;;;;;;;11.65;5.70;;;18.50;90.80;;;;;;4991667;28;20097;-66
2023/06/09 04:39:51;;;;;;;11.50;6.20;;;18.50;90.90;;;;;;4991877;28;20038;-66
2023/06/09 04:42:19;;;;;;;11.40;5.13;;;18.40;91.10;;;;;;4991695;28;20052;-66
2023/06/09 04:44:47;;;;;;;12.57;6.35;;;18.40;91.20;;;;;;4991025;28;20028;-66
2023/06/09 04:47:17;;;;;;;13.43;6.13;;;18.40;91.20;;;;;;4991862;28;20033;-66
2023/06/09 04:49:46;;;;;;;13.50;5.82;;;18.30;91.40;;;;;;4991655;28;20121;-66
2023/06/09 04:52:13;;;;;;;12.18;6.47;;;18.40;91.40;;;;;;4991397;28;20067;-66
2023/06/09 04:54:38;;;;;;;10.45;5.47;;;18.30;91.50;;;;;;4991969;28;20448;-66
2023/06/09 04:57:05;;;;;;;8.93;5.72;;;18.30;91.60;;;;;;4991485;28;20511;-66
2023/06/09 04:59:31;;;;;;;13.60;6.78;;;18.30;91.80;;;;;;4991832;28;20057;-66
2023/06/09 05:01:57;;;;;;;9.70;6.47;;;18.30;91.60;;;;;;4990921;28;20026;-66
2023/06/09 05:04:23;;;;;;;13.40;6.25;;;18.30;91.70;;;;;;4991376;28;20433;-66
2023/06/09 05:06:48;;;;;;;13.02;6.38;;;18.30;91.80;;;;;;4990727;28;20018;-66
2023/06/09 05:09:14;;;;;;;15.23;6.70;;;18.30;91.80;;;;;;4991455;28;20495;-66
2023/06/09 05:11:40;;;;;;;11.80;6.88;;;18.30;91.90;;;;;;4991571;28;20026;-66
2023/06/09 05:14:06;;;;;;;15.88;6.70;;;18.40;91.90;;;;;;4987446;28;20029;-66
2023/06/09 05:16:34;;;;;;;13.30;7.35;;;18.40;91.90;;;;;;4989381;28;20038;-66
2023/06/09 05:19:00;;;;;;;11.93;6.97;;;18.40;91.90;;;;;;4989265;28;20029;-66
2023/06/09 05:21:26;;;;;;;14.32;7.22;;;18.40;92.00;;;;;;4990738;28;20109;-66
2023/06/09 05:23:52;;;;;;;16.58;7.68;;;18.40;92.10;;;;;;4991212;28;20092;-66
2023/06/09 05:26:18;;;;;;;16.50;7.80;;;18.40;92.10;;;;;;4991441;28;20030;-66
2023/06/09 05:28:44;;;;;;;17.92;9.05;;;18.50;92.20;;;;;;4991248;28;20045;-66
2023/06/09 05:31:11;;;;;;;18.98;8.80;;;18.50;92.10;;;;;;4991239;28;20105;-66
2023/06/09 05:33:37;;;;;;;15.90;8.80;;;18.50;92.30;;;;;;4990996;28;20580;-66
2023/06/09 05:36:03;;;;;;;18.73;9.43;;;18.60;92.20;;;;;;4988486;28;20100;-66
2023/06/09 05:38:29;;;;;;;30.23;8.95;;;18.70;92.10;;;;;;4990847;28;20082;-66
2023/06/09 05:40:55;;;;;;;18.02;8.93;;;18.90;92.60;;;;;;4989034;28;20039;-67
2023/06/09 05:43:21;;;;;;;10.30;8.02;;;19.30;91.30;;;;;;4989372;28;20080;-67
2023/06/09 05:45:47;;;;;;;11.45;8.27;;;19.80;90.60;;;;;;4987964;28;20102;-67
2023/06/09 05:48:12;;;;;;;15.18;8.15;;;20.20;89.90;;;;;;4993716;28;20022;-67
2023/06/09 05:50:40;;;;;;;15.02;8.38;;;20.50;88.90;;;;;;4988701;28;20042;-67
2023/06/09 05:53:05;;;;;;;12.70;8.30;;;20.70;88.20;;;;;;4996676;28;20506;-67
2023/06/09 05:55:31;;;;;;;12.35;7.50;;;20.90;87.80;;;;;;5001287;28;20050;-67
2023/06/09 05:58:00;;;;;;;14.10;8.45;;;21.20;87.30;;;;;;4987023;28;20083;-67
2023/06/09 06:00:29;;;;;;;14.13;7.78;;;21.40;86.20;;;;;;4989062;28;20069;-67
2023/06/09 06:02:55;;;;;;;8.48;7.45;;;21.50;85.60;;;;;;4991961;28;20527;-68
2023/06/09 06:05:21;;;;;;;10.88;8.05;;;21.70;84.90;;;;;;4992200;28;20105;-67
2023/06/09 06:07:46;;;;;;;12.07;7.93;;;21.80;84.70;;;;;;5006732;28;20114;-67
2023/06/09 06:10:12;;;;;;;11.80;7.63;;;22.00;84.40;;;;;;5036462;28;20485;-67
2023/06/09 06:12:38;;;;;;;15.32;7.68;;;22.10;84.20;;;;;;4994119;28;20105;-68
2023/06/09 06:15:04;;;;;;;12.88;7.60;;;22.10;84.20;;;;;;5028129;28;20038;-68
2023/06/09 06:17:29;;;;;;;15.95;7.80;;;22.30;83.70;;;;;;5005637;28;20057;-68
2023/06/09 06:19:56;;;;;;;13.90;7.38;;;22.40;83.50;;;;;;4993332;28;20042;-69
2023/06/09 06:22:22;;;;;;;11.50;6.75;;;22.50;83.40;;;;;;4993606;28;20102;-70
2023/06/09 06:24:47;;;;;;;12.50;7.10;;;22.60;83.30;;;;;;4990334;28;20130;-69
2023/06/09 06:27:13;;;;;;;11.70;6.72;;;22.60;83.00;;;;;;4994281;28;20523;-70
2023/06/09 06:29:38;;;;;;;9.40;6.47;;;22.80;82.60;;;;;;4993806;28;20030;-70
2023/06/09 06:32:06;;;;;;;9.23;6.13;;;22.80;82.70;;;;;;4992973;28;20079;-71
2023/06/09 06:34:31;;;;;;;12.60;7.15;;;22.90;82.60;;;;;;4993512;28;20022;-68
2023/06/09 06:36:57;;;;;;;8.43;6.07;;;23.00;82.20;;;;;;4991993;28;20022;-68
2023/06/09 06:39:23;;;;;;;12.60;6.78;;;23.10;82.10;;;;;;4993184;28;20491;-71
2023/06/09 06:41:48;;;;;;;11.65;6.40;;;23.00;82.80;;;;;;4989978;28;20028;-69
2023/06/09 06:44:14;;;;;;;9.55;6.18;;;23.10;82.70;;;;;;5014297;28;20516;-70
2023/06/09 06:46:39;;;;;;;10.13;6.40;;;23.10;82.60;;;;;;5018715;28;20471;-68
2023/06/09 06:49:05;;;;;;;7.15;6.00;;;23.20;82.30;;;;;;4991543;28;20065;-69
2023/06/09 06:51:31;;;;;;;10.52;6.35;;;23.30;82.20;;;;;;4992201;28;20088;-69
2023/06/09 06:53:56;;;;;;;9.98;6.47;;;23.40;82.00;;;;;;4990306;28;20022;-69
2023/06/09 06:56:22;;;;;;;9.43;6.53;;;23.50;81.80;;;;;;4994662;28;20505;-68
2023/06/09 06:58:49;;;;;;;9.23;6.22;;;23.50;81.90;;;;;;4994311;28;20026;-69
2023/06/09 07:01:15;;;;;;;8.82;6.13;;;23.50;82.60;;;;;;5000989;28;20020;-68
2023/06/09 07:03:42;;;;;;;10.15;6.75;;;23.60;82.40;;;;;;4997782;28;20080;-69
2023/06/09 07:06:09;;;;;;;10.10;6.40;;;23.70;81.60;;;;;;4991924;28;20425;-70
2023/06/09 07:08:35;;;;;;;12.57;6.80;;;23.90;81.20;;;;;;4990088;28;20026;-69
2023/06/09 07:11:01;;;;;;;15.50;6.40;;;23.90;81.50;;;;;;5001609;28;20031;-69
2023/06/09 07:13:26;;;;;;;9.52;6.57;;;24.10;80.80;;;;;;4991906;28;20087;-67
2023/06/09 07:15:52;;;;;;;10.50;6.85;;;24.20;80.70;;;;;;4992013;28;20038;-67
2023/06/09 07:18:17;;;;;;;9.38;6.40;;;24.30;80.50;;;;;;4995323;28;20045;-67
2023/06/09 07:20:43;;;;;;;8.88;5.57;;;24.40;80.40;;;;;;4990710;28;20046;-67
2023/06/09 07:23:09;;;;;;;9.57;6.72;;;24.30;80.50;;;;;;4991325;28;20022;-67
2023/06/09 07:25:34;;;;;;;6.85;5.90;;;24.40;80.40;;;;;;4999788;28;20117;-67
2023/06/09 07:28:00;;;;;;;8.68;6.20;;;24.50;79.90;;;;;;5002740;28;20506;-67
2023/06/09 07:30:25;;;;;;;9.30;6.10;;;24.50;80.00;;;;;;4990650;28;20383;-67
2023/06/09 07:32:51;;;;;;;12.75;6.47;;;24.60;80.00;;;;;;4990010;28;20105;-68
2023/06/09 07:35:19;;;;;;;8.43;5.95;;;24.70;79.50;;;;;;4992182;28;20047;-67
2023/06/09 07:37:46;;;;;;;6.47;5.28;;;24.80;79.40;;;;;;4990841;28;20383;-67
2023/06/09 07:40:12;;;;;;;9.73;5.45;;;24.80;79.80;;;;;;4990833;28;20058;-67
2023/06/09 07:42:37;;;;;;;8.63;6.07;;;24.60;80.20;;;;;;4991883;28;20749;-67
2023/06/09 07:45:03;;;;;;;9.30;6.50;;;24.90;79.50;;;;;;4991963;28;20441;-67
2023/06/09 07:47:29;;;;;;;9.63;5.90;;;25.10;78.40;;;;;;4998170;28;20357;-67
2023/06/09 07:49:55;;;;;;;10.50;5.75;;;25.00;78.50;;;;;;4995650;28;20045;-68
2023/06/09 07:52:21;;;;;;;10.45;6.43;;;25.10;78.30;;;;;;4989704;28;20022;-67
2023/06/09 07:54:46;;;;;;;7.28;5.85;;;25.20;78.00;;;;;;4992003;28;20023;-68
2023/06/09 07:57:12;;;;;;;8.93;4.75;;;25.20;78.10;;;;;;4991259;28;20026;-68
2023/06/09 07:59:37;;;;;;;8.25;5.93;;;24.90;79.80;;;;;;4990482;28;20055;-69
2023/06/09 08:02:03;;;;;;;8.25;5.70;;;24.90;78.90;;;;;;4991403;28;20033;-68
2023/06/09 08:04:30;;;;;;;8.13;5.78;;;25.00;78.90;;;;;;4991063;28;20054;-66
2023/06/09 08:06:59;;;;;;;7.05;5.35;;;25.00;79.00;;;;;;4990312;28;20077;-67
2023/06/09 08:09:27;;;;;;;8.75;5.65;;;25.00;79.40;;;;;;4995596;28;20133;-71
2023/06/09 08:11:53;;;;;;;10.05;7.00;;;25.20;78.00;;;;;;4990910;28;20105;-66
2023/06/09 08:14:18;;;;;;;9.40;6.55;;;25.50;77.20;;;;;;4984312;28;20125;-68
2023/06/09 08:16:45;;;;;;;9.30;5.80;;;25.50;77.20;;;;;;4990278;28;20019;-69
2023/06/09 08:19:10;;;;;;;9.48;5.60;;;25.50;77.20;;;;;;4989473;28;20066;-70
2023/06/09 08:21:43;;;;;;;9.52;5.90;;;25.40;77.60;;;;;;4997696;28;20080;-67
2023/06/09 08:24:12;;;;;;;9.18;5.63;;;25.50;78.00;;;;;;5003929;28;20027;-69
2023/06/09 08:26:40;;;;;;;8.15;5.50;;;25.50;77.20;;;;;;4995940;28;20533;-68
2023/06/09 08:29:07;;;;;;;6.95;4.78;;;25.60;77.30;;;;;;4993206;28;20022;-68
2023/06/09 08:31:33;;;;;;;6.45;4.90;;;25.60;77.10;;;;;;4998668;28;20022;-69
2023/06/09 08:33:59;;;;;;;9.07;5.20;;;25.50;76.50;;;;;;5005374;28;20348;-67
2023/06/09 08:36:25;;;;;;;7.35;5.60;;;25.40;77.10;;;;;;4989418;28;20502;-66
2023/06/09 08:38:50;;;;;;;7.10;5.80;;;25.60;77.20;;;;;;5008219;28;20486;-69
2023/06/09 08:41:19;;;;;;;6.50;5.07;;;25.80;76.40;;;;;;5002308;28;20037;-67
2023/06/09 08:43:46;;;;;;;7.03;5.35;;;25.80;76.40;;;;;;5000841;28;20026;-67
2023/06/09 08:46:12;;;;;;;8.93;5.35;;;25.80;76.00;;;;;;4997728;28;20098;-67
2023/06/09 08:48:41;;;;;;;9.00;5.10;;;25.70;76.10;;;;;;4993637;28;20058;-67
2023/06/09 08:51:08;;;;;;;6.75;5.50;;;25.80;76.10;;;;;;4990259;28;20023;-67
2023/06/09 08:53:34;;;;;;;5.63;4.40;;;25.80;76.50;;;;;;4995359;28;20026;-67
2023/06/09 08:56:01;;;;;;;10.25;6.10;;;25.80;77.10;;;;;;4989196;28;20022;-70
2023/06/09 08:58:27;;;;;;;5.18;4.68;;;25.80;76.80;;;;;;4986746;28;20051;-67
2023/06/09 09:00:54;;;;;;;7.13;4.63;;;25.80;76.60;;;;;;5006125;28;20033;-67
2023/06/09 09:03:20;;;;;;;9.63;5.15;;;25.90;76.20;;;;;;4994661;28;20026;-68
2023/06/09 09:05:47;;;;;;;8.50;4.72;;;25.90;75.50;;;;;;4985847;28;20036;-66
2023/06/09 09:08:14;;;;;;;5.80;4.45;;;25.80;76.30;;;;;;4991421;28;20083;-66
2023/06/09 09:10:45;;;;;;;5.43;4.75;;;25.90;76.40;;;;;;4983113;28;20059;-66
2023/06/09 09:13:11;;;;;;;5.22;4.60;;;25.90;76.10;;;;;;4970060;28;20115;-67
2023/06/09 09:15:37;;;;;;;6.07;4.20;;;25.90;76.30;;;;;;4989363;28;20036;-66
2023/06/09 09:18:07;;;;;;;7.38;4.63;;;26.00;76.00;;;;;;4990016;28;20062;-66
2023/06/09 09:20:35;;;;;;;7.70;4.88;;;25.90;76.50;;;;;;4990927;28;20512;-66
2023/06/09 09:23:03;;;;;;;6.90;4.40;;;26.00;76.50;;;;;;4992494;28;20551;-67
2023/06/09 09:25:30;;;;;;;6.82;4.90;;;26.00;76.60;;;;;;4988711;28;20109;-66
2023/06/09 09:28:03;;;;;;;10.35;5.75;;;26.00;76.40;;;;;;4987584;28;20064;-66
2023/06/09 09:30:44;;;;;;;6.55;4.70;;;26.10;75.90;;;;;;4994313;28;20050;-65
2023/06/09 09:33:24;;;;;;;7.22;5.35;;;26.10;76.50;;;;;;4989696;28;20025;-66
2023/06/09 09:35:55;;;;;;;5.95;4.85;;;26.00;76.50;;;;;;4990002;28;20033;-66
2023/06/09 09:38:27;;;;;;;5.72;4.88;;;25.90;77.20;;;;;;4988483;28;20022;-67
2023/06/09 09:40:54;;;;;;;8.93;5.40;;;26.00;76.70;;;;;;4988962;28;20430;-68
2023/06/09 09:43:21;;;;;;;5.88;4.72;;;26.00;76.40;;;;;;4988905;28;20019;-68
2023/06/09 09:45:50;;;;;;;6.70;3.65;;;25.90;77.40;;;;;;4988830;28;20030;-68
2023/06/09 09:48:19;;;;;;;6.80;4.72;;;25.70;78.80;;;;;;4986355;28;20026;-69
2023/06/09 09:50:48;;;;;;;7.95;5.07;;;25.80;77.80;;;;;;4988090;28;20095;-73
2023/06/09 09:53:15;;;;;;;6.63;4.97;;;25.90;77.30;;;;;;4989996;28;20066;-68
2023/06/09 09:55:45;;;;;;;6.97;5.28;;;25.90;76.30;;;;;;4995135;28;20036;-68
2023/06/09 09:58:12;;;;;;;8.82;4.50;;;26.10;76.20;;;;;;5001404;28;20019;-67
2023/06/09 10:00:43;;;;;;;6.38;5.38;;;26.10;76.00;;;;;;4999208;28;20113;-69
2023/06/09 10:03:19;;;;;;;6.97;5.40;;;26.10;76.00;;;;;;5000296;28;20418;-71
2023/06/09 10:05:47;;;;;;;5.25;4.55;;;25.90;77.50;;;;;;4997663;28;20407;-67
2023/06/09 10:08:26;;;;;;;6.85;4.97;;;26.00;75.90;;;;;;4996777;28;20244;-67
2023/06/09 10:10:53;;;;;;;6.90;4.70;;;26.10;75.40;;;;;;4999894;28;20057;-67
2023/06/09 10:13:21;;;;;;;5.47;4.63;;;26.20;74.80;;;;;;4991878;28;20031;-69
2023/06/09 10:15:49;;;;;;;8.18;4.90;;;26.00;78.50;;;;;;4997452;28;20029;-67
2023/06/09 10:18:15;;;;;;;5.60;4.90;;;26.00;77.40;;;;;;5003374;28;20026;-69
2023/06/09 10:20:44;;;;;;;7.63;5.13;;;26.00;75.70;;;;;;4995541;28;20046;-70
2023/06/09 10:23:11;;;;;;;5.00;4.47;;;26.00;75.50;;;;;;4991418;28;20022;-69
2023/06/09 10:25:37;;;;;;;4.90;4.40;;;26.00;75.80;;;;;;4992611;28;20022;-67
2023/06/09 10:28:03;;;;;;;9.82;5.03;;;26.10;75.50;;;;;;4981555;28;20514;-73
2023/06/09 10:30:29;;;;;;;4.72;4.30;;;26.20;74.10;;;;;;4986640;28;20113;-71
2023/06/09 10:33:35;;;;;;;5.18;4.68;;;26.20;74.90;;;;;;4988701;28;20084;-72
2023/06/09 10:36:08;;;;;;;6.13;4.70;;;26.10;75.20;;;;;;5050067;28;20085;-71
2023/06/09 10:38:44;;;;;;;6.15;4.72;;;26.10;74.00;;;;;;5049697;28;20033;-72
2023/06/09 10:41:11;;;;;;;5.38;4.28;;;26.10;74.80;;;;;;5011386;28;20058;-72
2023/06/09 10:43:58;;;;;;;5.53;4.10;;;26.20;73.50;;;;;;4989126;28;20124;-72
2023/06/09 10:46:45;;;;;;;3.97;3.67;;;26.20;73.80;;;;;;4993105;28;20027;-72
2023/06/09 10:49:26;;;;;;;7.72;4.32;;;26.20;73.00;;;;;;4991952;28;20044;-71
2023/06/09 10:51:52;;;;;;;6.07;4.35;;;26.00;78.20;;;;;;5003023;28;20113;-71
2023/06/09 10:54:20;;;;;;;6.40;4.00;;;25.80;77.40;;;;;;4990215;28;20026;-71
2023/06/09 10:56:52;;;;;;;4.10;3.80;;;26.00;73.70;;;;;;5000891;28;20062;-71
2023/06/09 10:59:23;;;;;;;6.00;4.13;;;26.00;73.50;;;;;;4985988;28;20031;-72
2023/06/09 11:02:01;;;;;;;7.65;4.50;;;26.00;72.70;;;;;;4992943;28;20498;-70
2023/06/09 11:04:45;;;;;;;5.07;3.70;;;26.00;72.90;;;;;;4980100;28;20117;-71
2023/06/09 11:07:12;;;;;;;5.28;3.97;;;26.00;71.70;;;;;;4987843;28;20087;-73
2023/06/09 11:09:39;;;;;;;4.47;3.50;;;26.00;71.90;;;;;;4990351;28;20113;-69
2023/06/09 11:12:05;;;;;;;4.53;4.13;;;25.90;73.00;;;;;;4992166;28;20079;-70
2023/06/09 11:14:46;;;;;;;6.50;4.30;;;25.90;72.50;;;;;;4985182;28;20087;-69
2023/06/09 11:17:22;;;;;;;6.22;4.15;;;25.80;75.20;;;;;;4996195;28;20388;-70
2023/06/09 11:19:49;;;;;;;4.65;4.18;;;25.80;76.20;;;;;;4981337;28;20434;-69
2023/06/09 11:22:15;;;;;;;5.60;4.13;;;25.70;77.30;;;;;;5007015;28;20087;-68
2023/06/09 11:24:51;;;;;;;4.60;4.00;;;25.80;75.50;;;;;;5008797;28;20034;-68
2023/06/09 11:27:22;;;;;;;5.25;4.00;;;26.00;72.50;;;;;;4988613;28;20031;-70
2023/06/09 11:30:07;;;;;;;5.30;3.90;;;26.30;70.50;;;;;;4987805;28;20038;-69
2023/06/09 11:32:46;;;;;;;5.93;3.53;;;26.00;72.40;;;;;;4990446;28;20026;-71
2023/06/09 11:35:36;;;;;;;4.28;3.88;;;25.90;73.60;;;;;;4989891;28;20033;-70
2023/06/09 11:38:06;;;;;;;6.45;3.83;;;25.90;72.80;;;;;;5005842;28;20045;-73
2023/06/09 11:40:47;;;;;;;4.22;3.80;;;26.00;72.50;;;;;;4989262;28;20045;-71
2023/06/09 11:43:13;;;;;;;5.97;4.15;;;25.90;74.40;;;;;;4990115;28;20062;-71
2023/06/09 11:45:38;;;;;;;5.13;4.07;;;25.90;72.00;;;;;;4991155;28;20054;-72
2023/06/09 11:48:08;;;;;;;5.40;3.88;;;26.00;71.10;;;;;;4986203;28;20026;-70
2023/06/09 11:50:44;;;;;;;6.65;4.60;;;26.00;71.60;;;;;;4986961;28;20035;-72
2023/06/09 11:53:15;;;;;;;5.15;3.50;;;26.00;73.70;;;;;;4990256;28;20447;-69
2023/06/09 11:55:41;;;;;;;6.88;3.95;;;25.90;73.30;;;;;;4991656;28;20489;-70
2023/06/09 11:58:09;;;;;;;4.80;3.85;;;25.80;75.30;;;;;;4991607;28;20019;-71
2023/06/09 12:00:40;;;;;;;8.00;4.18;;;25.90;72.20;;;;;;4997223;28;20034;-70
2023/06/09 12:03:07;;;;;;;5.15;4.03;;;25.90;72.00;;;;;;5034008;28;20378;-72
2023/06/09 12:05:33;;;;;;;4.97;3.50;;;25.90;72.50;;;;;;4986050;28;20030;-71
2023/06/09 12:08:00;;;;;;;4.55;3.78;;;26.00;70.20;;;;;;4980376;28;20026;-70
2023/06/09 12:10:27;;;;;;;4.97;3.60;;;26.00;70.60;;;;;;4988912;28;20065;-70
2023/06/09 12:13:00;;;;;;;7.03;3.28;;;26.00;71.60;;;;;;4989861;28;20111;-70
2023/06/09 12:15:26;;;;;;;7.63;4.28;;;26.00;69.60;;;;;;4990589;28;20022;-71
2023/06/09 12:17:56;;;;;;;7.85;4.38;;;26.00;72.30;;;;;;4980963;28;20023;-71
2023/06/09 12:20:29;;;;;;;8.18;5.10;;;25.90;74.50;;;;;;4999560;28;20041;-70
2023/06/09 12:23:12;;;;;;;3.50;3.20;;;25.90;73.80;;;;;;4988098;28;20022;-71
2023/06/09 12:25:46;;;;;;;7.50;5.45;;;26.00;69.10;;;;;;4974841;28;20022;-71
2023/06/09 12:28:27;;;;;;;6.13;4.07;;;25.90;74.50;;;;;;4989689;28;20041;-71
2023/06/09 12:30:55;;;;;;;5.60;3.88;;;26.00;71.40;;;;;;4993232;28;20029;-72
2023/06/09 12:33:25;;;;;;;6.97;3.30;;;26.10;69.80;;;;;;4988457;28;20029;-71
2023/06/09 12:35:53;;;;;;;5.13;3.10;;;26.10;69.00;;;;;;4978977;28;20026;-72
2023/06/09 12:38:22;;;;;;;6.97;4.40;;;26.10;69.30;;;;;;4991843;28;20079;-71
2023/06/09 12:41:09;;;;;;;15.32;8.07;;;26.20;71.20;;;;;;4982178;28;20386;-71
2023/06/09 12:43:45;;;;;;;16.00;8.40;;;26.00;75.10;;;;;;4989184;28;20100;-72
2023/06/09 12:46:12;;;;;;;12.68;8.00;;;26.00;73.70;;;;;;4996732;28;20029;-72
2023/06/09 12:48:57;;;;;;;25.00;10.27;;;26.00;73.20;;;;;;4990069;28;20057;-68